createdAt,value
2018-12-31T00:02:13.139Z,20.23
2018-12-31T00:04:44.961Z,18.87
2018-12-31T00:07:16.721Z,19.23
2018-12-31T00:09:48.412Z,19.40
2018-12-31T00:12:20.062Z,20.30
2018-12-31T00:14:52.176Z,20.60
2018-12-31T00:17:23.914Z,21.87
2018-12-31T00:19:55.485Z,22.33
2018-12-31T00:22:27.068Z,23.17
2018-12-31T00:24:58.763Z,22.33
2018-12-31T00:27:30.168Z,23.33
2018-12-31T00:30:02.721Z,25.07
2018-12-31T00:32:35.116Z,25.20
2018-12-31T00:35:06.848Z,23.57
2018-12-31T00:37:38.709Z,24.87
2018-12-31T00:40:10.366Z,25.40
2018-12-31T00:42:43.560Z,27.40
2018-12-31T00:45:15.413Z,26.33
2018-12-31T00:47:48.324Z,26.47
2018-12-31T00:50:19.878Z,26.37
2018-12-31T00:52:51.722Z,27.57
2018-12-31T00:55:23.260Z,28.10
2018-12-31T00:57:55.203Z,27.63
2018-12-31T01:00:27.489Z,27.43
2018-12-31T01:02:59.403Z,26.80
2018-12-31T01:05:31.441Z,26.63
2018-12-31T01:08:02.919Z,27.37
2018-12-31T01:10:34.581Z,27.27
2018-12-31T01:13:06.059Z,27.87
2018-12-31T01:15:37.735Z,27.33
2018-12-31T01:18:09.299Z,28.13
2018-12-31T01:20:42.210Z,28.07
2018-12-31T01:23:13.723Z,27.57
2018-12-31T01:25:47.250Z,28.80
2018-12-31T01:28:18.795Z,28.53
2018-12-31T01:30:50.344Z,28.70
2018-12-31T01:33:22.050Z,28.77
2018-12-31T01:35:53.724Z,28.17
2018-12-31T01:38:25.592Z,27.60
2018-12-31T01:40:59.148Z,27.77
2018-12-31T01:43:30.585Z,27.97
2018-12-31T01:46:02.277Z,28.13
2018-12-31T01:48:34.106Z,28.87
2018-12-31T01:51:11.517Z,29.10
2018-12-31T01:53:40.989Z,28.27
2018-12-31T01:56:15.829Z,27.67
2018-12-31T01:58:47.488Z,27.63
2018-12-31T02:01:22.103Z,28.67
2018-12-31T02:03:53.550Z,27.83
2018-12-31T02:06:25.337Z,27.37
2018-12-31T02:08:57.088Z,26.57
2018-12-31T02:11:28.628Z,27.53
2018-12-31T02:14:00.411Z,26.73
2018-12-31T02:16:33.665Z,25.93
2018-12-31T02:19:07.020Z,27.30
2018-12-31T02:21:39.303Z,25.80
2018-12-31T02:24:12.484Z,26.63
2018-12-31T02:26:43.986Z,27.07
2018-12-31T02:29:15.657Z,28.20
2018-12-31T02:31:47.284Z,26.80
2018-12-31T02:34:20.237Z,25.97
2018-12-31T02:36:52.690Z,26.13
2018-12-31T02:39:24.558Z,25.13
2018-12-31T02:41:56.174Z,25.47
2018-12-31T02:44:28.349Z,27.53
2018-12-31T02:47:00.275Z,26.07
2018-12-31T02:49:33.403Z,25.60
2018-12-31T02:52:06.313Z,25.60
2018-12-31T02:54:37.961Z,25.97
2018-12-31T02:57:09.418Z,25.70
2018-12-31T02:59:40.934Z,25.70
2018-12-31T03:02:13.153Z,24.93
2018-12-31T03:04:44.757Z,23.90
2018-12-31T03:07:16.173Z,25.43
2018-12-31T03:09:49.763Z,24.50
2018-12-31T03:12:23.137Z,24.77
2018-12-31T03:14:56.586Z,23.50
2018-12-31T03:17:28.348Z,24.30
2018-12-31T03:19:59.794Z,23.20
2018-12-31T03:22:31.321Z,23.50
2018-12-31T03:25:03.993Z,22.90
2018-12-31T03:27:36.200Z,22.83
2018-12-31T03:30:07.922Z,24.10
2018-12-31T03:32:40.324Z,23.83
2018-12-31T03:35:20.543Z,22.97
2018-12-31T03:37:54.466Z,21.33
2018-12-31T03:40:27.264Z,21.17
2018-12-31T03:42:58.743Z,22.03
2018-12-31T03:45:30.572Z,21.43
2018-12-31T03:48:02.529Z,21.63
2018-12-31T03:50:34.216Z,21.07
2018-12-31T03:53:06.167Z,20.70
2018-12-31T03:55:38.039Z,21.27
2018-12-31T03:58:09.648Z,21.37
2018-12-31T04:00:41.154Z,19.53
2018-12-31T04:03:14.233Z,20.77
2018-12-31T04:05:45.932Z,20.17
2018-12-31T04:08:18.472Z,19.47
2018-12-31T04:10:50.557Z,19.77
2018-12-31T04:13:22.182Z,19.30
2018-12-31T04:15:53.867Z,18.80
2018-12-31T04:18:25.627Z,19.23
2018-12-31T04:20:57.226Z,18.30
2018-12-31T04:23:29.375Z,18.77
2018-12-31T04:26:01.003Z,19.03
2018-12-31T04:28:33.855Z,19.27
2018-12-31T04:31:07.455Z,19.37
2018-12-31T04:33:39.219Z,18.50
2018-12-31T04:36:12.610Z,17.50
2018-12-31T04:38:44.473Z,18.20
2018-12-31T04:41:17.359Z,17.93
2018-12-31T04:43:49.461Z,18.23
2018-12-31T04:46:22.566Z,18.50
2018-12-31T04:48:54.315Z,18.97
2018-12-31T04:51:26.041Z,18.07
2018-12-31T04:53:57.731Z,17.53
2018-12-31T04:56:31.394Z,16.97
2018-12-31T04:59:04.257Z,17.43
2018-12-31T05:01:35.925Z,18.00
2018-12-31T05:04:07.501Z,17.07
2018-12-31T05:06:39.257Z,18.80
2018-12-31T05:09:10.774Z,19.07
2018-12-31T05:11:44.559Z,18.33
2018-12-31T05:14:17.534Z,19.60
2018-12-31T05:16:49.797Z,18.67
2018-12-31T05:19:21.688Z,18.93
2018-12-31T05:21:53.042Z,19.13
2018-12-31T05:24:26.427Z,18.27
2018-12-31T05:26:57.963Z,19.17
2018-12-31T05:29:30.381Z,19.67
2018-12-31T05:32:02.165Z,18.50
2018-12-31T05:34:34.047Z,19.13
2018-12-31T05:37:05.574Z,18.77
2018-12-31T05:39:37.629Z,18.10
2018-12-31T05:42:10.035Z,18.53
2018-12-31T05:44:42.236Z,18.90
2018-12-31T05:47:13.827Z,18.10
2018-12-31T05:49:45.535Z,18.43
2018-12-31T05:52:18.432Z,18.03
2018-12-31T05:54:50.522Z,19.63
2018-12-31T05:57:24.724Z,17.90
2018-12-31T05:59:56.619Z,17.67
2018-12-31T06:02:29.079Z,18.13
2018-12-31T06:05:02.566Z,17.50
2018-12-31T06:07:34.970Z,18.37
2018-12-31T06:10:06.990Z,17.43
2018-12-31T06:12:38.595Z,17.53
2018-12-31T06:15:15.738Z,19.03
2018-12-31T06:17:47.865Z,17.63
2018-12-31T06:20:20.434Z,18.07
2018-12-31T06:23:02.561Z,17.30
2018-12-31T06:25:42.600Z,17.87
2018-12-31T06:28:18.984Z,17.83
2018-12-31T06:30:50.834Z,17.37
2018-12-31T06:33:22.299Z,17.60
2018-12-31T06:35:55.237Z,18.57
2018-12-31T06:38:26.706Z,17.67
2018-12-31T06:40:59.806Z,20.97
2018-12-31T06:43:33.590Z,19.57
2018-12-31T06:46:05.172Z,19.30
2018-12-31T06:48:36.826Z,20.67
2018-12-31T06:51:09.506Z,19.63
2018-12-31T06:53:42.053Z,18.93
2018-12-31T06:56:13.879Z,19.17
2018-12-31T06:58:45.674Z,18.53
2018-12-31T07:01:17.405Z,18.60
2018-12-31T07:03:48.816Z,18.30
2018-12-31T07:06:26.539Z,17.87
2018-12-31T07:09:01.027Z,18.07
2018-12-31T07:11:34.733Z,17.20
2018-12-31T07:14:07.953Z,16.87
2018-12-31T07:16:39.920Z,16.80
2018-12-31T07:19:26.666Z,17.07
2018-12-31T07:22:09.093Z,17.43
2018-12-31T07:24:43.038Z,17.20
2018-12-31T07:27:17.200Z,16.67
2018-12-31T07:29:48.701Z,18.70
2018-12-31T07:32:20.778Z,18.00
2018-12-31T07:34:52.425Z,18.03
2018-12-31T07:37:24.545Z,18.00
2018-12-31T07:39:56.438Z,20.73
2018-12-31T07:42:27.956Z,19.97
2018-12-31T07:45:00.618Z,19.77
2018-12-31T07:47:33.577Z,18.87
2018-12-31T07:50:05.807Z,20.47
2018-12-31T07:52:37.341Z,18.33
2018-12-31T07:55:08.816Z,19.50
2018-12-31T07:57:42.132Z,18.97
2018-12-31T08:00:13.660Z,19.67
2018-12-31T08:02:45.535Z,18.80
2018-12-31T08:05:17.005Z,18.53
2018-12-31T08:07:50.370Z,22.03
2018-12-31T08:10:23.090Z,21.23
2018-12-31T08:12:54.979Z,20.77
2018-12-31T08:15:26.687Z,21.27
2018-12-31T08:17:58.261Z,21.53
2018-12-31T08:20:30.009Z,20.73
2018-12-31T08:23:01.981Z,20.43
2018-12-31T08:25:33.863Z,19.90
2018-12-31T08:28:06.841Z,19.07
2018-12-31T08:30:40.046Z,19.23
2018-12-31T08:33:11.615Z,18.20
2018-12-31T08:35:43.486Z,19.80
2018-12-31T08:38:15.949Z,19.60
2018-12-31T08:40:47.852Z,18.60
2018-12-31T08:43:19.441Z,20.10
2018-12-31T08:45:52.810Z,18.60
2018-12-31T08:48:24.412Z,20.27
2018-12-31T08:50:56.245Z,21.57
2018-12-31T08:53:28.015Z,21.33
2018-12-31T08:55:59.523Z,20.57
2018-12-31T08:58:31.572Z,20.10
2018-12-31T09:01:03.257Z,19.90
2018-12-31T09:03:35.010Z,20.97
2018-12-31T09:06:06.840Z,20.00
2018-12-31T09:08:38.975Z,19.60
2018-12-31T09:11:12.228Z,20.93
2018-12-31T09:13:43.986Z,20.13
2018-12-31T09:16:16.053Z,19.17
2018-12-31T09:18:48.234Z,19.00
2018-12-31T09:21:19.623Z,18.23
2018-12-31T09:23:51.568Z,18.60
2018-12-31T09:26:23.408Z,18.83
2018-12-31T09:28:55.559Z,17.57
2018-12-31T09:31:27.508Z,18.33
2018-12-31T09:34:00.376Z,18.50
2018-12-31T09:36:31.816Z,18.80
2018-12-31T09:39:03.977Z,18.60
2018-12-31T09:41:35.539Z,16.57
2018-12-31T09:44:08.243Z,19.33
2018-12-31T09:46:40.403Z,18.17
2018-12-31T09:49:12.257Z,17.87
2018-12-31T09:51:46.709Z,18.17
2018-12-31T09:54:18.754Z,18.23
2018-12-31T09:56:50.620Z,17.77
2018-12-31T09:59:22.244Z,17.23
2018-12-31T10:01:53.904Z,17.20
2018-12-31T10:04:25.654Z,17.20
2018-12-31T10:06:57.551Z,17.47
2018-12-31T10:09:30.998Z,17.23
2018-12-31T10:12:02.421Z,16.00
2018-12-31T10:14:33.945Z,14.90
2018-12-31T10:17:08.265Z,15.17
2018-12-31T10:19:40.586Z,14.93
2018-12-31T10:22:16.180Z,14.80
2018-12-31T10:24:47.636Z,15.17
2018-12-31T10:27:19.326Z,15.03
2018-12-31T10:29:51.685Z,16.00
2018-12-31T10:32:23.424Z,15.00
2018-12-31T10:34:56.537Z,15.57
2018-12-31T10:37:28.707Z,16.60
2018-12-31T10:40:02.110Z,15.83
2018-12-31T10:42:33.801Z,15.80
2018-12-31T10:45:05.596Z,15.67
2018-12-31T10:47:38.321Z,16.40
2018-12-31T10:50:10.115Z,17.90
2018-12-31T10:52:43.339Z,17.00
2018-12-31T10:55:14.839Z,17.80
2018-12-31T10:57:47.892Z,17.27
2018-12-31T11:00:19.937Z,16.53
2018-12-31T11:02:51.623Z,16.53
2018-12-31T11:05:24.177Z,15.50
2018-12-31T11:07:55.509Z,16.23
2018-12-31T11:10:28.142Z,17.00
2018-12-31T11:13:00.566Z,16.80
2018-12-31T11:15:32.551Z,16.63
2018-12-31T11:18:05.644Z,15.83
2018-12-31T11:20:38.690Z,16.23
2018-12-31T11:23:11.161Z,17.00
2018-12-31T11:25:43.174Z,16.27
2018-12-31T11:28:15.126Z,15.47
2018-12-31T11:30:46.977Z,15.43
2018-12-31T11:33:18.524Z,14.80
2018-12-31T11:35:50.370Z,15.03
2018-12-31T11:38:22.287Z,15.50
2018-12-31T11:40:53.984Z,14.13
2018-12-31T11:43:25.589Z,14.77
2018-12-31T11:45:57.235Z,14.50
2018-12-31T11:48:30.356Z,13.70
2018-12-31T11:51:02.128Z,13.93
2018-12-31T11:53:34.780Z,13.17
2018-12-31T11:56:06.921Z,13.97
2018-12-31T11:58:38.355Z,13.33
2018-12-31T12:01:10.251Z,12.93
2018-12-31T12:03:45.193Z,13.23
2018-12-31T12:06:16.976Z,12.20
2018-12-31T12:08:48.725Z,12.83
2018-12-31T12:11:22.467Z,12.67
2018-12-31T12:13:54.703Z,12.67
2018-12-31T12:16:27.956Z,12.77
2018-12-31T12:18:59.657Z,12.60
2018-12-31T12:21:31.501Z,12.03
2018-12-31T12:24:03.162Z,12.27
2018-12-31T12:26:34.830Z,10.87
2018-12-31T12:29:06.302Z,10.37
2018-12-31T12:31:42.662Z,11.10
2018-12-31T12:34:14.283Z,11.67
2018-12-31T12:36:45.983Z,11.50
2018-12-31T12:39:18.081Z,12.03
2018-12-31T12:41:49.914Z,11.73
2018-12-31T12:44:23.591Z,11.53
2018-12-31T12:46:55.273Z,11.60
2018-12-31T12:49:29.246Z,12.57
2018-12-31T12:52:00.845Z,12.40
2018-12-31T12:54:34.276Z,11.30
2018-12-31T12:57:07.812Z,10.80
2018-12-31T12:59:39.555Z,10.50
2018-12-31T13:02:11.525Z,9.73
2018-12-31T13:04:43.421Z,9.77
2018-12-31T13:07:15.958Z,9.60
2018-12-31T13:09:48.123Z,9.23
2018-12-31T13:12:19.982Z,9.93
2018-12-31T13:14:51.728Z,9.43
2018-12-31T13:17:23.545Z,9.97
2018-12-31T13:19:55.217Z,10.13
2018-12-31T13:22:26.638Z,9.40
2018-12-31T13:24:59.812Z,8.30
2018-12-31T13:27:31.482Z,8.63
2018-12-31T13:30:03.096Z,9.20
2018-12-31T13:32:34.804Z,9.07
2018-12-31T13:35:06.432Z,8.10
2018-12-31T13:37:38.511Z,8.47
2018-12-31T13:40:13.774Z,8.67
2018-12-31T13:42:45.671Z,8.33
2018-12-31T13:45:17.282Z,8.47
2018-12-31T13:47:49.383Z,9.07
2018-12-31T13:50:22.374Z,8.83
2018-12-31T13:52:54.636Z,7.80
2018-12-31T13:55:26.742Z,7.60
2018-12-31T13:57:58.591Z,7.83
2018-12-31T14:00:31.414Z,7.00
2018-12-31T14:03:03.054Z,7.43
2018-12-31T14:05:35.778Z,6.90
2018-12-31T14:08:08.247Z,7.13
2018-12-31T14:10:41.692Z,7.77
2018-12-31T14:13:13.478Z,7.87
2018-12-31T14:15:47.195Z,16.00
2018-12-31T14:18:19.011Z,14.83
2018-12-31T14:20:50.898Z,9.80
2018-12-31T14:23:22.702Z,9.13
2018-12-31T14:25:54.736Z,7.97
2018-12-31T14:28:27.344Z,8.03
2018-12-31T14:31:00.752Z,8.07
2018-12-31T14:33:32.364Z,7.87
2018-12-31T14:36:04.044Z,8.77
2018-12-31T14:38:35.978Z,8.57
2018-12-31T14:41:11.154Z,8.40
2018-12-31T14:43:43.746Z,8.03
2018-12-31T14:46:15.278Z,8.70
2018-12-31T14:48:46.963Z,8.90
2018-12-31T14:51:18.420Z,9.20
2018-12-31T14:53:53.084Z,10.30
2018-12-31T14:56:24.616Z,9.53
2018-12-31T14:58:56.196Z,10.20
2018-12-31T15:01:28.017Z,12.13
2018-12-31T15:03:59.884Z,12.67
2018-12-31T15:06:31.386Z,11.10
2018-12-31T15:09:03.687Z,11.23
2018-12-31T15:11:35.572Z,9.60
2018-12-31T15:14:07.378Z,10.17
2018-12-31T15:16:39.157Z,10.60
2018-12-31T15:19:11.488Z,10.30
2018-12-31T15:21:43.108Z,10.33
2018-12-31T15:24:17.078Z,11.77
2018-12-31T15:26:48.924Z,11.10
2018-12-31T15:29:20.696Z,11.10
2018-12-31T15:31:53.265Z,11.60
2018-12-31T15:34:25.029Z,10.70
2018-12-31T15:36:56.753Z,10.97
2018-12-31T15:39:31.289Z,11.17
2018-12-31T15:42:02.775Z,11.27
2018-12-31T15:44:34.667Z,11.20
2018-12-31T15:47:06.364Z,10.87
2018-12-31T15:49:38.137Z,13.10
2018-12-31T15:52:10.950Z,13.20
2018-12-31T15:54:43.206Z,15.00
2018-12-31T15:57:14.784Z,15.70
2018-12-31T15:59:46.273Z,11.97
2018-12-31T16:02:18.187Z,13.00
2018-12-31T16:04:50.698Z,12.43
2018-12-31T16:07:29.538Z,13.43
2018-12-31T16:10:03.179Z,12.83
2018-12-31T16:12:36.779Z,12.87
2018-12-31T16:15:09.691Z,13.23
2018-12-31T16:17:41.618Z,12.87
2018-12-31T16:20:13.428Z,14.43
2018-12-31T16:22:47.670Z,13.90
2018-12-31T16:25:20.403Z,13.57
2018-12-31T16:27:52.828Z,13.47
2018-12-31T16:30:24.356Z,14.30
2018-12-31T16:32:55.760Z,14.20
2018-12-31T16:35:28.249Z,15.40
2018-12-31T16:37:59.855Z,16.10
2018-12-31T16:40:34.970Z,15.77
2018-12-31T16:43:06.688Z,16.10
2018-12-31T16:45:38.376Z,16.60
2018-12-31T16:48:11.093Z,16.63
2018-12-31T16:50:42.591Z,17.20
2018-12-31T16:53:14.070Z,18.17
2018-12-31T16:55:45.960Z,19.43
2018-12-31T16:58:17.809Z,18.73
2018-12-31T17:00:49.498Z,18.00
2018-12-31T17:03:21.666Z,19.30
2018-12-31T17:05:53.660Z,18.47
2018-12-31T17:08:25.669Z,19.00
2018-12-31T17:10:57.490Z,19.33
2018-12-31T17:13:28.980Z,18.60
2018-12-31T17:16:00.990Z,19.40
2018-12-31T17:18:32.581Z,19.57
2018-12-31T17:21:04.464Z,20.03
2018-12-31T17:23:36.868Z,19.83
2018-12-31T17:26:08.384Z,20.87
2018-12-31T17:28:39.975Z,20.53
2018-12-31T17:31:11.886Z,21.57
2018-12-31T17:33:43.448Z,21.60
2018-12-31T17:36:15.082Z,21.90
2018-12-31T17:38:46.967Z,22.10
2018-12-31T17:41:18.695Z,21.83
2018-12-31T17:43:50.289Z,23.20
2018-12-31T17:46:22.030Z,22.97
2018-12-31T17:48:53.897Z,23.67
2018-12-31T17:51:27.352Z,22.73
2018-12-31T17:54:00.004Z,24.20
2018-12-31T17:56:32.014Z,25.33
2018-12-31T17:59:05.611Z,26.23
2018-12-31T18:01:37.329Z,28.33
2018-12-31T18:04:08.826Z,29.13
2018-12-31T18:06:40.578Z,30.47
2018-12-31T18:09:12.558Z,30.53
2018-12-31T18:11:45.404Z,30.63
2018-12-31T18:14:17.187Z,29.80
2018-12-31T18:16:50.466Z,30.00
2018-12-31T18:19:22.192Z,30.27
2018-12-31T18:21:54.701Z,30.67
2018-12-31T18:24:26.159Z,30.17
2018-12-31T18:26:57.775Z,32.50
2018-12-31T18:29:29.420Z,31.67
2018-12-31T18:32:01.288Z,32.47
2018-12-31T18:34:33.995Z,33.40
2018-12-31T18:37:05.689Z,34.53
2018-12-31T18:39:37.954Z,34.37
2018-12-31T18:42:11.205Z,35.07
2018-12-31T18:44:42.915Z,35.40
2018-12-31T18:47:14.599Z,36.93
2018-12-31T18:49:49.103Z,36.50
2018-12-31T18:52:23.398Z,35.53
2018-12-31T18:54:55.060Z,33.67
2018-12-31T18:57:26.874Z,33.43
2018-12-31T18:59:58.643Z,34.50
2018-12-31T19:02:30.951Z,36.30
2018-12-31T19:05:02.936Z,36.47
2018-12-31T19:07:34.459Z,35.27
2018-12-31T19:10:06.004Z,35.37
2018-12-31T19:12:38.853Z,36.60
2018-12-31T19:15:10.505Z,35.10
2018-12-31T19:17:41.982Z,31.90
2018-12-31T19:20:16.177Z,31.87
2018-12-31T19:22:48.313Z,33.10
2018-12-31T19:25:19.771Z,32.73
2018-12-31T19:27:51.481Z,33.50
2018-12-31T19:30:24.263Z,36.30
2018-12-31T19:32:56.971Z,37.93
2018-12-31T19:35:29.089Z,36.43
2018-12-31T19:38:01.150Z,37.60
2018-12-31T19:40:33.785Z,35.10
2018-12-31T19:43:05.247Z,32.13
2018-12-31T19:45:36.813Z,30.00
2018-12-31T19:48:08.382Z,29.83
2018-12-31T19:50:40.094Z,27.83
2018-12-31T19:53:13.481Z,28.73
2018-12-31T19:55:44.674Z,27.40
2018-12-31T19:58:16.173Z,28.67
2018-12-31T20:00:47.768Z,30.40
2018-12-31T20:03:19.864Z,30.70
2018-12-31T20:05:53.231Z,32.93
2018-12-31T20:08:25.111Z,31.33
2018-12-31T20:10:56.884Z,30.30
2018-12-31T20:13:28.651Z,32.60
2018-12-31T20:16:01.470Z,32.47
2018-12-31T20:18:33.308Z,32.33
2018-12-31T20:21:06.656Z,31.63
2018-12-31T20:23:38.135Z,33.37
2018-12-31T20:26:10.468Z,33.27
2018-12-31T20:28:42.953Z,31.20
2018-12-31T20:31:14.861Z,30.97
2018-12-31T20:33:47.963Z,28.87
2018-12-31T20:36:19.553Z,30.83
2018-12-31T20:38:51.091Z,29.33
2018-12-31T20:41:22.741Z,27.50
2018-12-31T20:43:54.609Z,29.43
2018-12-31T20:46:26.270Z,28.27
2018-12-31T20:48:58.299Z,24.73
2018-12-31T20:51:31.091Z,25.07
2018-12-31T20:54:02.591Z,23.60
2018-12-31T20:56:37.166Z,25.23
2018-12-31T20:59:08.862Z,25.40
2018-12-31T21:01:42.052Z,24.60
2018-12-31T21:04:15.014Z,23.60
2018-12-31T21:06:46.468Z,22.60
2018-12-31T21:09:18.235Z,22.50
2018-12-31T21:11:49.836Z,22.20
2018-12-31T21:14:21.549Z,22.07
2018-12-31T21:16:53.349Z,21.07
2018-12-31T21:19:24.950Z,19.73
2018-12-31T21:21:56.419Z,19.17
2018-12-31T21:24:27.917Z,18.43
2018-12-31T21:27:01.113Z,17.40
2018-12-31T21:29:32.958Z,18.37
2018-12-31T21:32:04.856Z,17.53
2018-12-31T21:34:36.504Z,18.27
2018-12-31T21:37:09.890Z,17.90
2018-12-31T21:39:41.735Z,18.33
2018-12-31T21:42:13.436Z,17.77
2018-12-31T21:44:51.441Z,16.50
2018-12-31T21:47:25.360Z,16.33
2018-12-31T21:49:56.882Z,17.47
2018-12-31T21:52:29.350Z,17.40
2018-12-31T21:55:00.998Z,18.40
2018-12-31T21:57:33.605Z,18.47
2018-12-31T22:00:06.236Z,19.33
2018-12-31T22:02:37.883Z,18.23
2018-12-31T22:05:09.746Z,17.40
2018-12-31T22:07:43.221Z,17.67
2018-12-31T22:10:15.663Z,18.07
2018-12-31T22:12:47.158Z,17.70
2018-12-31T22:15:18.775Z,18.53
2018-12-31T22:17:50.630Z,17.60
2018-12-31T22:20:25.128Z,18.63
2018-12-31T22:22:56.611Z,17.60
2018-12-31T22:25:28.077Z,15.77
2018-12-31T22:27:59.986Z,16.50
2018-12-31T22:30:31.587Z,15.70
2018-12-31T22:33:03.227Z,16.10
2018-12-31T22:35:35.330Z,16.20
2018-12-31T22:38:09.140Z,15.80
2018-12-31T22:40:42.424Z,15.53
2018-12-31T22:43:16.452Z,16.10
2018-12-31T22:45:48.101Z,14.87
2018-12-31T22:48:19.860Z,15.70
2018-12-31T22:50:52.098Z,14.80
2018-12-31T22:53:25.753Z,14.73
2018-12-31T22:55:57.241Z,15.60
2018-12-31T22:58:30.803Z,15.57
2018-12-31T23:01:03.283Z,15.37
2018-12-31T23:03:35.071Z,22.47
2018-12-31T23:06:06.827Z,17.67
2018-12-31T23:08:38.679Z,29.03
2018-12-31T23:11:10.208Z,22.17
2018-12-31T23:13:42.821Z,20.40
2018-12-31T23:16:20.357Z,21.80
2018-12-31T23:18:51.947Z,22.77
2018-12-31T23:21:24.219Z,25.57
2018-12-31T23:23:55.929Z,29.57
2018-12-31T23:26:27.664Z,23.53
2018-12-31T23:29:01.172Z,33.70
2018-12-31T23:31:34.128Z,31.97
2018-12-31T23:34:06.141Z,27.97
2018-12-31T23:36:39.656Z,21.93
2018-12-31T23:39:12.354Z,21.37
2018-12-31T23:41:44.074Z,20.13
2018-12-31T23:44:15.888Z,20.30
2018-12-31T23:46:51.904Z,19.47
2018-12-31T23:49:26.389Z,18.80
2018-12-31T23:51:58.046Z,19.07
2018-12-31T23:54:29.583Z,19.27
2018-12-31T23:57:01.440Z,18.77
2018-12-31T23:59:33.619Z,17.07
